sensor_id;sensor_type;location;lat;lon;timestamp;P1;durP1;ratioP1;P2;durP2;ratioP2
68188;SDS011;55008;47.514;19.218;2022-11-13T07:23:29;287.17;;;44.08;;
68188;SDS011;55008;47.514;19.218;2022-11-13T07:26:00;364.83;;;55.10;;
68188;SDS011;55008;47.514;19.218;2022-11-13T07:28:29;378.33;;;61.78;;
68188;SDS011;55008;47.514;19.218;2022-11-13T07:30:58;337.80;;;60.85;;
68188;SDS011;55008;47.514;19.218;2022-11-13T07:33:27;444.95;;;64.70;;
68188;SDS011;55008;47.514;19.218;2022-11-13T07:35:55;398.95;;;69.35;;
68188;SDS011;55008;47.514;19.218;2022-11-13T07:38:24;495.17;;;73.88;;
68188;SDS011;55008;47.514;19.218;2022-11-13T07:40:59;374.38;;;66.90;;
68188;SDS011;55008;47.514;19.218;2022-11-13T07:43:29;359.25;;;66.80;;
68188;SDS011;55008;47.514;19.218;2022-11-13T07:45:58;425.27;;;68.93;;
68188;SDS011;55008;47.514;19.218;2022-11-13T07:48:27;420.63;;;66.95;;
68188;SDS011;55008;47.514;19.218;2022-11-13T07:50:58;340.08;;;64.00;;
68188;SDS011;55008;47.514;19.218;2022-11-13T07:53:28;315.90;;;66.68;;
68188;SDS011;55008;47.514;19.218;2022-11-13T07:56:02;263.98;;;65.80;;
68188;SDS011;55008;47.514;19.218;2022-11-13T07:58:33;366.83;;;67.35;;
68188;SDS011;55008;47.514;19.218;2022-11-13T08:01:05;481.00;;;70.38;;
68188;SDS011;55008;47.514;19.218;2022-11-13T08:03:34;343.88;;;63.33;;
68188;SDS011;55008;47.514;19.218;2022-11-13T08:06:04;355.00;;;65.38;;
68188;SDS011;55008;47.514;19.218;2022-11-13T08:08:34;387.42;;;66.68;;
68188;SDS011;55008;47.514;19.218;2022-11-13T08:11:04;312.17;;;62.25;;
68188;SDS011;55008;47.514;19.218;2022-11-13T08:13:36;347.83;;;64.90;;
68188;SDS011;55008;47.514;19.218;2022-11-13T08:16:05;272.23;;;60.70;;
68188;SDS011;55008;47.514;19.218;2022-11-13T08:18:38;278.13;;;62.25;;
68188;SDS011;55008;47.514;19.218;2022-11-13T08:21:12;272.85;;;57.78;;
68188;SDS011;55008;47.514;19.218;2022-11-13T08:23:41;341.33;;;64.90;;
68188;SDS011;55008;47.514;19.218;2022-11-13T08:26:11;390.95;;;63.42;;
68188;SDS011;55008;47.514;19.218;2022-11-13T08:28:40;318.95;;;58.72;;
68188;SDS011;55008;47.514;19.218;2022-11-13T08:31:09;298.20;;;58.17;;
68188;SDS011;55008;47.514;19.218;2022-11-13T08:33:41;346.30;;;59.50;;
68188;SDS011;55008;47.514;19.218;2022-11-13T08:36:13;343.08;;;59.22;;
68188;SDS011;55008;47.514;19.218;2022-11-13T08:38:41;454.67;;;65.10;;
68188;SDS011;55008;47.514;19.218;2022-11-13T08:41:13;457.98;;;64.43;;
68188;SDS011;55008;47.514;19.218;2022-11-13T08:43:43;236.73;;;58.17;;
68188;SDS011;55008;47.514;19.218;2022-11-13T08:46:12;316.65;;;57.13;;
68188;SDS011;55008;47.514;19.218;2022-11-13T08:48:40;436.30;;;58.30;;
68188;SDS011;55008;47.514;19.218;2022-11-13T08:51:09;403.95;;;57.67;;
68188;SDS011;55008;47.514;19.218;2022-11-13T08:53:41;297.42;;;56.10;;
68188;SDS011;55008;47.514;19.218;2022-11-13T08:56:10;281.08;;;55.95;;
68188;SDS011;55008;47.514;19.218;2022-11-13T08:58:43;231.18;;;55.78;;
68188;SDS011;55008;47.514;19.218;2022-11-13T09:01:12;277.17;;;55.28;;
68188;SDS011;55008;47.514;19.218;2022-11-13T09:03:42;282.02;;;56.45;;
68188;SDS011;55008;47.514;19.218;2022-11-13T09:06:11;333.67;;;56.65;;
68188;SDS011;55008;47.514;19.218;2022-11-13T09:08:39;202.82;;;57.45;;
68188;SDS011;55008;47.514;19.218;2022-11-13T09:11:08;290.65;;;58.42;;
68188;SDS011;55008;47.514;19.218;2022-11-13T09:13:38;193.95;;;55.65;;
68188;SDS011;55008;47.514;19.218;2022-11-13T09:16:17;215.38;;;57.17;;
68188;SDS011;55008;47.514;19.218;2022-11-13T09:18:49;199.20;;;54.92;;
68188;SDS011;55008;47.514;19.218;2022-11-13T09:21:21;242.88;;;55.17;;
68188;SDS011;55008;47.514;19.218;2022-11-13T09:23:51;216.88;;;52.45;;
68188;SDS011;55008;47.514;19.218;2022-11-13T09:26:21;174.50;;;53.50;;
68188;SDS011;55008;47.514;19.218;2022-11-13T09:28:52;180.50;;;52.65;;
68188;SDS011;55008;47.514;19.218;2022-11-13T09:31:22;194.98;;;55.88;;
68188;SDS011;55008;47.514;19.218;2022-11-13T09:33:52;196.93;;;52.45;;
68188;SDS011;55008;47.514;19.218;2022-11-13T09:36:25;179.90;;;47.67;;
68188;SDS011;55008;47.514;19.218;2022-11-13T09:38:54;324.30;;;46.47;;
68188;SDS011;55008;47.514;19.218;2022-11-13T09:41:25;225.88;;;45.40;;
68188;SDS011;55008;47.514;19.218;2022-11-13T09:44:01;201.70;;;44.30;;
68188;SDS011;55008;47.514;19.218;2022-11-13T09:46:36;242.10;;;45.90;;
68188;SDS011;55008;47.514;19.218;2022-11-13T09:49:14;163.95;;;46.67;;
68188;SDS011;55008;47.514;19.218;2022-11-13T09:51:47;169.68;;;47.15;;
68188;SDS011;55008;47.514;19.218;2022-11-13T09:54:18;222.85;;;47.85;;
68188;SDS011;55008;47.514;19.218;2022-11-13T09:56:50;201.63;;;48.03;;
68188;SDS011;55008;47.514;19.218;2022-11-13T09:59:25;215.25;;;52.20;;
68188;SDS011;55008;47.514;19.218;2022-11-13T10:02:09;118.88;;;47.05;;
68188;SDS011;55008;47.514;19.218;2022-11-13T10:04:49;121.75;;;45.35;;
68188;SDS011;55008;47.514;19.218;2022-11-13T10:07:28;271.33;;;43.22;;
68188;SDS011;55008;47.514;19.218;2022-11-13T10:10:12;126.80;;;40.50;;
68188;SDS011;55008;47.514;19.218;2022-11-13T10:12:48;148.27;;;40.05;;
68188;SDS011;55008;47.514;19.218;2022-11-13T10:15:19;106.70;;;39.55;;
68188;SDS011;55008;47.514;19.218;2022-11-13T10:17:50;102.78;;;41.47;;
68188;SDS011;55008;47.514;19.218;2022-11-13T10:20:24;177.15;;;44.28;;
68188;SDS011;55008;47.514;19.218;2022-11-13T10:23:02;128.07;;;45.47;;
68188;SDS011;55008;47.514;19.218;2022-11-13T10:25:37;121.60;;;46.42;;
68188;SDS011;55008;47.514;19.218;2022-11-13T10:28:13;141.30;;;50.88;;
68188;SDS011;55008;47.514;19.218;2022-11-13T10:31:04;132.27;;;49.17;;
68188;SDS011;55008;47.514;19.218;2022-11-13T10:33:36;102.25;;;43.55;;
68188;SDS011;55008;47.514;19.218;2022-11-13T10:36:07;89.07;;;39.97;;
68188;SDS011;55008;47.514;19.218;2022-11-13T10:38:46;93.75;;;40.72;;
68188;SDS011;55008;47.514;19.218;2022-11-13T10:41:22;94.28;;;42.70;;
68188;SDS011;55008;47.514;19.218;2022-11-13T10:43:50;84.88;;;39.53;;
68188;SDS011;55008;47.514;19.218;2022-11-13T10:46:23;80.95;;;38.90;;
68188;SDS011;55008;47.514;19.218;2022-11-13T10:48:57;80.25;;;37.60;;
68188;SDS011;55008;47.514;19.218;2022-11-13T10:51:53;75.87;;;37.70;;
68188;SDS011;55008;47.514;19.218;2022-11-13T10:54:24;77.35;;;39.63;;
68188;SDS011;55008;47.514;19.218;2022-11-13T10:56:57;73.30;;;38.33;;
68188;SDS011;55008;47.514;19.218;2022-11-13T10:59:34;78.85;;;38.30;;
68188;SDS011;55008;47.514;19.218;2022-11-13T11:02:18;72.03;;;37.03;;
68188;SDS011;55008;47.514;19.218;2022-11-13T11:04:59;69.38;;;36.72;;
68188;SDS011;55008;47.514;19.218;2022-11-13T11:07:29;66.57;;;36.75;;
68188;SDS011;55008;47.514;19.218;2022-11-13T11:10:13;63.55;;;36.38;;
68188;SDS011;55008;47.514;19.218;2022-11-13T11:12:52;63.78;;;34.40;;
68188;SDS011;55008;47.514;19.218;2022-11-13T11:15:26;64.88;;;34.83;;
68188;SDS011;55008;47.514;19.218;2022-11-13T11:18:03;67.72;;;35.83;;
68188;SDS011;55008;47.514;19.218;2022-11-13T11:20:41;63.85;;;34.83;;
68188;SDS011;55008;47.514;19.218;2022-11-13T11:23:22;73.75;;;38.67;;
68188;SDS011;55008;47.514;19.218;2022-11-13T11:26:00;75.75;;;39.33;;
68188;SDS011;55008;47.514;19.218;2022-11-13T11:28:34;87.60;;;45.58;;
68188;SDS011;55008;47.514;19.218;2022-11-13T11:31:08;72.78;;;38.60;;
68188;SDS011;55008;47.514;19.218;2022-11-13T11:33:46;71.63;;;36.50;;
68188;SDS011;55008;47.514;19.218;2022-11-13T11:36:21;75.97;;;39.35;;
68188;SDS011;55008;47.514;19.218;2022-11-13T11:39:05;79.18;;;39.63;;
68188;SDS011;55008;47.514;19.218;2022-11-13T11:41:45;77.37;;;39.60;;
68188;SDS011;55008;47.514;19.218;2022-11-13T11:44:20;72.22;;;38.45;;
68188;SDS011;55008;47.514;19.218;2022-11-13T11:46:58;83.57;;;41.45;;
68188;SDS011;55008;47.514;19.218;2022-11-13T11:49:30;71.97;;;39.05;;
68188;SDS011;55008;47.514;19.218;2022-11-13T11:52:03;73.60;;;38.03;;
68188;SDS011;55008;47.514;19.218;2022-11-13T11:54:42;69.20;;;37.30;;
68188;SDS011;55008;47.514;19.218;2022-11-13T11:57:24;73.57;;;38.22;;
68188;SDS011;55008;47.514;19.218;2022-11-13T12:05:33;73.25;;;38.85;;
68188;SDS011;55008;47.514;19.218;2022-11-13T12:08:10;79.35;;;41.83;;
68188;SDS011;55008;47.514;19.218;2022-11-13T12:10:52;74.07;;;40.53;;
68188;SDS011;55008;47.514;19.218;2022-11-13T12:13:28;73.72;;;40.28;;
68188;SDS011;55008;47.514;19.218;2022-11-13T12:16:01;72.67;;;41.30;;
68188;SDS011;55008;47.514;19.218;2022-11-13T12:18:36;70.22;;;38.95;;
68188;SDS011;55008;47.514;19.218;2022-11-13T12:21:20;75.97;;;39.60;;
68188;SDS011;55008;47.514;19.218;2022-11-13T12:24:02;80.03;;;41.20;;
68188;SDS011;55008;47.514;19.218;2022-11-13T12:26:41;81.05;;;41.90;;
68188;SDS011;55008;47.514;19.218;2022-11-13T12:29:17;80.13;;;42.17;;
68188;SDS011;55008;47.514;19.218;2022-11-13T12:32:00;78.57;;;42.67;;
68188;SDS011;55008;47.514;19.218;2022-11-13T12:34:35;84.40;;;44.25;;
68188;SDS011;55008;47.514;19.218;2022-11-13T12:37:16;80.47;;;42.67;;
68188;SDS011;55008;47.514;19.218;2022-11-13T12:39:53;77.00;;;40.97;;
68188;SDS011;55008;47.514;19.218;2022-11-13T12:42:27;73.35;;;40.40;;
68188;SDS011;55008;47.514;19.218;2022-11-13T12:45:04;69.30;;;38.50;;
68188;SDS011;55008;47.514;19.218;2022-11-13T12:47:39;68.75;;;39.55;;
68188;SDS011;55008;47.514;19.218;2022-11-13T12:50:20;69.78;;;38.63;;
68188;SDS011;55008;47.514;19.218;2022-11-13T12:52:58;68.18;;;36.30;;
68188;SDS011;55008;47.514;19.218;2022-11-13T12:55:31;68.65;;;37.67;;
68188;SDS011;55008;47.514;19.218;2022-11-13T12:58:04;68.43;;;37.33;;
68188;SDS011;55008;47.514;19.218;2022-11-13T13:00:36;78.30;;;37.92;;
68188;SDS011;55008;47.514;19.218;2022-11-13T13:05:56;63.10;;;34.92;;
68188;SDS011;55008;47.514;19.218;2022-11-13T13:08:43;63.83;;;35.08;;
68188;SDS011;55008;47.514;19.218;2022-11-13T13:11:40;59.63;;;34.50;;
68188;SDS011;55008;47.514;19.218;2022-11-13T13:14:17;62.63;;;35.90;;
68188;SDS011;55008;47.514;19.218;2022-11-13T13:17:03;59.05;;;35.25;;
68188;SDS011;55008;47.514;19.218;2022-11-13T13:19:32;65.35;;;36.28;;
68188;SDS011;55008;47.514;19.218;2022-11-13T13:22:02;64.82;;;36.15;;
68188;SDS011;55008;47.514;19.218;2022-11-13T13:24:34;60.67;;;36.30;;
68188;SDS011;55008;47.514;19.218;2022-11-13T13:27:16;61.92;;;36.70;;
68188;SDS011;55008;47.514;19.218;2022-11-13T13:29:51;60.55;;;36.35;;
68188;SDS011;55008;47.514;19.218;2022-11-13T13:32:21;64.93;;;36.67;;
68188;SDS011;55008;47.514;19.218;2022-11-13T13:34:56;57.95;;;34.80;;
68188;SDS011;55008;47.514;19.218;2022-11-13T13:37:34;60.15;;;35.20;;
68188;SDS011;55008;47.514;19.218;2022-11-13T13:40:21;61.35;;;34.70;;
68188;SDS011;55008;47.514;19.218;2022-11-13T13:43:08;61.30;;;33.38;;
68188;SDS011;55008;47.514;19.218;2022-11-13T13:45:52;63.40;;;35.17;;
68188;SDS011;55008;47.514;19.218;2022-11-13T13:48:28;60.08;;;35.00;;
68188;SDS011;55008;47.514;19.218;2022-11-13T13:50:58;59.35;;;34.63;;
68188;SDS011;55008;47.514;19.218;2022-11-13T13:53:28;58.67;;;34.72;;
68188;SDS011;55008;47.514;19.218;2022-11-13T13:55:58;60.55;;;35.15;;
68188;SDS011;55008;47.514;19.218;2022-11-13T13:58:33;58.63;;;36.00;;
68188;SDS011;55008;47.514;19.218;2022-11-13T14:01:10;61.60;;;36.80;;
68188;SDS011;55008;47.514;19.218;2022-11-13T14:03:45;60.00;;;34.95;;
68188;SDS011;55008;47.514;19.218;2022-11-13T14:06:19;59.13;;;35.47;;
68188;SDS011;55008;47.514;19.218;2022-11-13T14:08:49;59.83;;;35.22;;
68188;SDS011;55008;47.514;19.218;2022-11-13T14:11:18;62.55;;;36.70;;
68188;SDS011;55008;47.514;19.218;2022-11-13T14:13:49;62.97;;;36.42;;
68188;SDS011;55008;47.514;19.218;2022-11-13T14:16:17;63.30;;;36.47;;
68188;SDS011;55008;47.514;19.218;2022-11-13T14:18:46;65.90;;;36.92;;
68188;SDS011;55008;47.514;19.218;2022-11-13T14:21:16;66.22;;;37.60;;
68188;SDS011;55008;47.514;19.218;2022-11-13T14:23:49;68.00;;;37.08;;
68188;SDS011;55008;47.514;19.218;2022-11-13T14:26:18;63.00;;;37.40;;
68188;SDS011;55008;47.514;19.218;2022-11-13T14:31:29;65.85;;;37.58;;
68188;SDS011;55008;47.514;19.218;2022-11-13T14:33:59;71.80;;;39.78;;
68188;SDS011;55008;47.514;19.218;2022-11-13T14:36:35;71.03;;;41.78;;
68188;SDS011;55008;47.514;19.218;2022-11-13T14:39:10;74.25;;;39.30;;
68188;SDS011;55008;47.514;19.218;2022-11-13T14:41:45;75.90;;;40.42;;
68188;SDS011;55008;47.514;19.218;2022-11-13T14:46:58;73.05;;;40.47;;
68188;SDS011;55008;47.514;19.218;2022-11-13T14:49:32;78.28;;;41.42;;
68188;SDS011;55008;47.514;19.218;2022-11-13T14:52:02;94.85;;;45.67;;
68188;SDS011;55008;47.514;19.218;2022-11-13T14:54:34;93.43;;;48.40;;
68188;SDS011;55008;47.514;19.218;2022-11-13T15:00:15;91.45;;;45.80;;
68188;SDS011;55008;47.514;19.218;2022-11-13T15:02:45;93.57;;;46.70;;
68188;SDS011;55008;47.514;19.218;2022-11-13T15:05:13;102.88;;;50.35;;
68188;SDS011;55008;47.514;19.218;2022-11-13T15:07:42;108.95;;;50.42;;
68188;SDS011;55008;47.514;19.218;2022-11-13T15:10:13;98.13;;;47.78;;
68188;SDS011;55008;47.514;19.218;2022-11-13T15:12:48;92.53;;;45.75;;
68188;SDS011;55008;47.514;19.218;2022-11-13T15:15:21;91.50;;;45.38;;
68188;SDS011;55008;47.514;19.218;2022-11-13T15:17:51;93.82;;;45.25;;
68188;SDS011;55008;47.514;19.218;2022-11-13T15:20:25;105.68;;;48.88;;
68188;SDS011;55008;47.514;19.218;2022-11-13T15:22:56;105.38;;;48.15;;
68188;SDS011;55008;47.514;19.218;2022-11-13T15:25:25;110.03;;;51.25;;
68188;SDS011;55008;47.514;19.218;2022-11-13T15:27:54;112.72;;;49.90;;
68188;SDS011;55008;47.514;19.218;2022-11-13T15:30:24;106.93;;;48.88;;
68188;SDS011;55008;47.514;19.218;2022-11-13T15:32:53;106.25;;;49.60;;
68188;SDS011;55008;47.514;19.218;2022-11-13T15:35:23;100.18;;;48.25;;
68188;SDS011;55008;47.514;19.218;2022-11-13T15:37:51;114.43;;;48.90;;
68188;SDS011;55008;47.514;19.218;2022-11-13T15:40:21;117.70;;;53.10;;
68188;SDS011;55008;47.514;19.218;2022-11-13T15:42:50;126.93;;;53.20;;
68188;SDS011;55008;47.514;19.218;2022-11-13T15:45:20;116.10;;;50.53;;
68188;SDS011;55008;47.514;19.218;2022-11-13T15:47:49;111.53;;;49.25;;
68188;SDS011;55008;47.514;19.218;2022-11-13T15:50:18;130.95;;;59.90;;
68188;SDS011;55008;47.514;19.218;2022-11-13T15:52:48;133.13;;;57.55;;
68188;SDS011;55008;47.514;19.218;2022-11-13T15:55:18;131.43;;;58.78;;
68188;SDS011;55008;47.514;19.218;2022-11-13T15:57:52;118.22;;;55.72;;
68188;SDS011;55008;47.514;19.218;2022-11-13T16:00:21;99.30;;;48.53;;
68188;SDS011;55008;47.514;19.218;2022-11-13T16:02:53;111.75;;;51.45;;
68188;SDS011;55008;47.514;19.218;2022-11-13T16:05:23;115.07;;;52.75;;
68188;SDS011;55008;47.514;19.218;2022-11-13T16:07:54;125.15;;;56.47;;
68188;SDS011;55008;47.514;19.218;2022-11-13T16:10:25;114.88;;;52.53;;
68188;SDS011;55008;47.514;19.218;2022-11-13T16:12:53;126.35;;;55.05;;
68188;SDS011;55008;47.514;19.218;2022-11-13T16:15:22;133.70;;;54.20;;
68188;SDS011;55008;47.514;19.218;2022-11-13T16:17:53;124.90;;;54.67;;
68188;SDS011;55008;47.514;19.218;2022-11-13T16:20:23;131.50;;;57.05;;
68188;SDS011;55008;47.514;19.218;2022-11-13T16:22:52;129.07;;;57.80;;
68188;SDS011;55008;47.514;19.218;2022-11-13T16:25:21;159.32;;;63.78;;
68188;SDS011;55008;47.514;19.218;2022-11-13T16:27:49;188.32;;;68.93;;
68188;SDS011;55008;47.514;19.218;2022-11-13T16:30:20;134.85;;;56.78;;
68188;SDS011;55008;47.514;19.218;2022-11-13T16:32:53;141.43;;;54.00;;
68188;SDS011;55008;47.514;19.218;2022-11-13T16:35:29;138.18;;;55.67;;
68188;SDS011;55008;47.514;19.218;2022-11-13T16:37:57;152.30;;;57.17;;
68188;SDS011;55008;47.514;19.218;2022-11-13T16:40:26;157.80;;;58.05;;
68188;SDS011;55008;47.514;19.218;2022-11-13T16:42:56;187.00;;;65.70;;
68188;SDS011;55008;47.514;19.218;2022-11-13T16:45:24;168.68;;;61.75;;
68188;SDS011;55008;47.514;19.218;2022-11-13T16:47:54;183.85;;;64.28;;
68188;SDS011;55008;47.514;19.218;2022-11-13T16:50:27;173.88;;;64.70;;
68188;SDS011;55008;47.514;19.218;2022-11-13T16:52:58;165.65;;;61.78;;
68188;SDS011;55008;47.514;19.218;2022-11-13T16:55:27;170.65;;;62.60;;
68188;SDS011;55008;47.514;19.218;2022-11-13T16:57:56;172.80;;;63.00;;
68188;SDS011;55008;47.514;19.218;2022-11-13T17:00:26;198.50;;;64.38;;
68188;SDS011;55008;47.514;19.218;2022-11-13T17:02:58;191.15;;;66.13;;
68188;SDS011;55008;47.514;19.218;2022-11-13T17:05:30;204.52;;;65.25;;
68188;SDS011;55008;47.514;19.218;2022-11-13T17:07:58;198.07;;;68.40;;
68188;SDS011;55008;47.514;19.218;2022-11-13T17:10:27;185.52;;;66.22;;
68188;SDS011;55008;47.514;19.218;2022-11-13T17:12:58;226.27;;;75.32;;
68188;SDS011;55008;47.514;19.218;2022-11-13T17:15:31;231.35;;;77.97;;
68188;SDS011;55008;47.514;19.218;2022-11-13T17:18:02;226.48;;;71.60;;
68188;SDS011;55008;47.514;19.218;2022-11-13T17:20:34;179.73;;;61.60;;
68188;SDS011;55008;47.514;19.218;2022-11-13T17:23:03;150.43;;;54.15;;
68188;SDS011;55008;47.514;19.218;2022-11-13T17:25:31;148.80;;;53.13;;
68188;SDS011;55008;47.514;19.218;2022-11-13T17:28:00;137.77;;;53.05;;
68188;SDS011;55008;47.514;19.218;2022-11-13T17:30:29;144.25;;;55.40;;
68188;SDS011;55008;47.514;19.218;2022-11-13T17:32:57;143.88;;;51.92;;
68188;SDS011;55008;47.514;19.218;2022-11-13T17:35:27;135.10;;;52.08;;
68188;SDS011;55008;47.514;19.218;2022-11-13T17:37:56;137.60;;;51.42;;
68188;SDS011;55008;47.514;19.218;2022-11-13T17:40:25;148.68;;;52.65;;
68188;SDS011;55008;47.514;19.218;2022-11-13T17:42:53;140.85;;;53.75;;
68188;SDS011;55008;47.514;19.218;2022-11-13T17:45:22;152.00;;;54.60;;
68188;SDS011;55008;47.514;19.218;2022-11-13T17:47:50;151.50;;;53.38;;
68188;SDS011;55008;47.514;19.218;2022-11-13T17:50:20;159.90;;;53.97;;
68188;SDS011;55008;47.514;19.218;2022-11-13T17:52:50;139.02;;;53.38;;
68188;SDS011;55008;47.514;19.218;2022-11-13T17:55:18;166.90;;;57.53;;
68188;SDS011;55008;47.514;19.218;2022-11-13T17:57:47;156.13;;;54.72;;
68188;SDS011;55008;47.514;19.218;2022-11-13T18:00:16;151.77;;;54.00;;
68188;SDS011;55008;47.514;19.218;2022-11-13T18:02:45;154.73;;;54.03;;
68188;SDS011;55008;47.514;19.218;2022-11-13T18:05:14;165.77;;;54.95;;
68188;SDS011;55008;47.514;19.218;2022-11-13T18:07:43;163.27;;;54.88;;
68188;SDS011;55008;47.514;19.218;2022-11-13T18:10:15;164.13;;;54.13;;
68188;SDS011;55008;47.514;19.218;2022-11-13T18:12:44;165.98;;;57.65;;
68188;SDS011;55008;47.514;19.218;2022-11-13T18:15:12;182.45;;;63.97;;
68188;SDS011;55008;47.514;19.218;2022-11-13T18:17:43;181.57;;;61.65;;
68188;SDS011;55008;47.514;19.218;2022-11-13T18:20:12;187.40;;;63.20;;
68188;SDS011;55008;47.514;19.218;2022-11-13T18:22:40;184.82;;;64.05;;
68188;SDS011;55008;47.514;19.218;2022-11-13T18:25:09;170.32;;;58.67;;
68188;SDS011;55008;47.514;19.218;2022-11-13T18:27:38;176.52;;;58.05;;
68188;SDS011;55008;47.514;19.218;2022-11-13T18:30:08;184.23;;;56.13;;
68188;SDS011;55008;47.514;19.218;2022-11-13T18:32:38;172.75;;;51.03;;
68188;SDS011;55008;47.514;19.218;2022-11-13T18:35:06;172.32;;;50.65;;
68188;SDS011;55008;47.514;19.218;2022-11-13T18:37:35;149.77;;;49.10;;
68188;SDS011;55008;47.514;19.218;2022-11-13T18:40:07;176.82;;;51.80;;
68188;SDS011;55008;47.514;19.218;2022-11-13T18:42:37;178.65;;;53.78;;
68188;SDS011;55008;47.514;19.218;2022-11-13T18:45:07;198.50;;;55.88;;
68188;SDS011;55008;47.514;19.218;2022-11-13T18:47:38;181.63;;;55.90;;
68188;SDS011;55008;47.514;19.218;2022-11-13T18:50:07;182.02;;;54.28;;
68188;SDS011;55008;47.514;19.218;2022-11-13T18:52:36;149.75;;;48.80;;
68188;SDS011;55008;47.514;19.218;2022-11-13T18:55:04;167.38;;;51.28;;
68188;SDS011;55008;47.514;19.218;2022-11-13T18:57:35;178.38;;;54.53;;
68188;SDS011;55008;47.514;19.218;2022-11-13T19:00:06;181.32;;;53.53;;
68188;SDS011;55008;47.514;19.218;2022-11-13T19:02:36;182.02;;;52.55;;
68188;SDS011;55008;47.514;19.218;2022-11-13T19:05:04;193.80;;;52.85;;
68188;SDS011;55008;47.514;19.218;2022-11-13T19:07:33;215.73;;;56.08;;
68188;SDS011;55008;47.514;19.218;2022-11-13T19:10:01;281.15;;;72.85;;
68188;SDS011;55008;47.514;19.218;2022-11-13T19:12:31;263.50;;;70.68;;
68188;SDS011;55008;47.514;19.218;2022-11-13T19:15:03;346.15;;;77.90;;
68188;SDS011;55008;47.514;19.218;2022-11-13T19:17:34;356.27;;;72.70;;
68188;SDS011;55008;47.514;19.218;2022-11-13T19:20:03;536.55;;;72.75;;
68188;SDS011;55008;47.514;19.218;2022-11-13T19:22:33;306.08;;;64.90;;
68188;SDS011;55008;47.514;19.218;2022-11-13T19:25:01;323.90;;;66.32;;
68188;SDS011;55008;47.514;19.218;2022-11-13T19:27:30;299.70;;;64.57;;
68188;SDS011;55008;47.514;19.218;2022-11-13T19:29:58;395.63;;;63.70;;
68188;SDS011;55008;47.514;19.218;2022-11-13T19:32:27;902.63;;;138.60;;
68188;SDS011;55008;47.514;19.218;2022-11-13T19:34:57;1999.90;;;351.55;;
68188;SDS011;55008;47.514;19.218;2022-11-13T19:37:26;788.55;;;130.43;;
68188;SDS011;55008;47.514;19.218;2022-11-13T19:39:55;688.88;;;98.88;;
68188;SDS011;55008;47.514;19.218;2022-11-13T19:42:25;937.80;;;119.10;;
68188;SDS011;55008;47.514;19.218;2022-11-13T19:44:54;757.00;;;108.68;;
68188;SDS011;55008;47.514;19.218;2022-11-13T19:47:22;505.02;;;97.03;;
68188;SDS011;55008;47.514;19.218;2022-11-13T19:49:51;521.13;;;80.28;;
68188;SDS011;55008;47.514;19.218;2022-11-13T19:52:22;422.75;;;71.47;;
68188;SDS011;55008;47.514;19.218;2022-11-13T19:54:51;390.17;;;69.60;;
68188;SDS011;55008;47.514;19.218;2022-11-13T19:57:19;656.50;;;127.38;;
68188;SDS011;55008;47.514;19.218;2022-11-13T19:59:50;420.35;;;87.95;;
68188;SDS011;55008;47.514;19.218;2022-11-13T20:02:18;448.42;;;89.43;;
68188;SDS011;55008;47.514;19.218;2022-11-13T20:04:47;385.27;;;92.95;;
68188;SDS011;55008;47.514;19.218;2022-11-13T20:07:15;340.92;;;93.22;;
68188;SDS011;55008;47.514;19.218;2022-11-13T20:09:46;395.02;;;115.53;;
68188;SDS011;55008;47.514;19.218;2022-11-13T20:12:14;283.42;;;115.20;;
68188;SDS011;55008;47.514;19.218;2022-11-13T20:14:43;314.90;;;116.43;;
68188;SDS011;55008;47.514;19.218;2022-11-13T20:17:11;298.25;;;116.47;;
68188;SDS011;55008;47.514;19.218;2022-11-13T20:19:41;263.13;;;109.95;;
68188;SDS011;55008;47.514;19.218;2022-11-13T20:22:10;259.73;;;111.68;;
68188;SDS011;55008;47.514;19.218;2022-11-13T20:24:42;259.17;;;111.45;;
68188;SDS011;55008;47.514;19.218;2022-11-13T20:27:11;290.70;;;119.60;;
68188;SDS011;55008;47.514;19.218;2022-11-13T20:29:39;336.60;;;128.48;;
68188;SDS011;55008;47.514;19.218;2022-11-13T20:32:08;977.13;;;131.32;;
68188;SDS011;55008;47.514;19.218;2022-11-13T20:34:38;658.10;;;117.75;;
68188;SDS011;55008;47.514;19.218;2022-11-13T20:37:06;397.70;;;107.70;;
68188;SDS011;55008;47.514;19.218;2022-11-13T20:39:35;1315.97;;;222.65;;
68188;SDS011;55008;47.514;19.218;2022-11-13T20:42:04;571.42;;;125.70;;
68188;SDS011;55008;47.514;19.218;2022-11-13T20:44:34;540.78;;;127.68;;
68188;SDS011;55008;47.514;19.218;2022-11-13T20:47:03;426.00;;;100.97;;
68188;SDS011;55008;47.514;19.218;2022-11-13T20:49:32;384.45;;;93.78;;
68188;SDS011;55008;47.514;19.218;2022-11-13T20:52:00;331.98;;;100.57;;
68188;SDS011;55008;47.514;19.218;2022-11-13T20:54:30;214.35;;;93.68;;
68188;SDS011;55008;47.514;19.218;2022-11-13T20:56:59;260.75;;;98.68;;
68188;SDS011;55008;47.514;19.218;2022-11-13T20:59:27;191.63;;;92.55;;
68188;SDS011;55008;47.514;19.218;2022-11-13T21:01:57;277.38;;;110.80;;
68188;SDS011;55008;47.514;19.218;2022-11-13T21:04:28;279.27;;;112.40;;
68188;SDS011;55008;47.514;19.218;2022-11-13T21:06:56;267.48;;;109.68;;
68188;SDS011;55008;47.514;19.218;2022-11-13T21:09:25;564.72;;;130.30;;
68188;SDS011;55008;47.514;19.218;2022-11-13T21:11:55;474.90;;;136.68;;
68188;SDS011;55008;47.514;19.218;2022-11-13T21:14:23;460.65;;;137.57;;
68188;SDS011;55008;47.514;19.218;2022-11-13T21:16:52;651.67;;;139.18;;
68188;SDS011;55008;47.514;19.218;2022-11-13T21:19:23;348.52;;;117.18;;
68188;SDS011;55008;47.514;19.218;2022-11-13T21:21:51;578.75;;;124.75;;
68188;SDS011;55008;47.514;19.218;2022-11-13T21:24:20;530.78;;;116.15;;
68188;SDS011;55008;47.514;19.218;2022-11-13T21:26:49;634.00;;;122.15;;
68188;SDS011;55008;47.514;19.218;2022-11-13T21:29:17;787.55;;;129.85;;
68188;SDS011;55008;47.514;19.218;2022-11-13T21:31:46;587.15;;;118.63;;
68188;SDS011;55008;47.514;19.218;2022-11-13T21:34:15;812.38;;;132.00;;
68188;SDS011;55008;47.514;19.218;2022-11-13T21:36:45;846.42;;;130.77;;
68188;SDS011;55008;47.514;19.218;2022-11-13T21:39:13;785.00;;;124.80;;
68188;SDS011;55008;47.514;19.218;2022-11-13T21:41:42;823.47;;;131.68;;
68188;SDS011;55008;47.514;19.218;2022-11-13T21:44:10;1118.80;;;221.68;;
68188;SDS011;55008;47.514;19.218;2022-11-13T21:46:39;1115.75;;;205.85;;
68188;SDS011;55008;47.514;19.218;2022-11-13T21:49:09;1237.72;;;192.60;;
68188;SDS011;55008;47.514;19.218;2022-11-13T21:51:39;744.55;;;134.98;;
68188;SDS011;55008;47.514;19.218;2022-11-13T21:54:09;602.05;;;114.82;;
68188;SDS011;55008;47.514;19.218;2022-11-13T21:56:38;500.95;;;109.20;;
68188;SDS011;55008;47.514;19.218;2022-11-13T21:59:07;861.10;;;127.30;;
68188;SDS011;55008;47.514;19.218;2022-11-13T22:01:36;866.50;;;144.73;;
68188;SDS011;55008;47.514;19.218;2022-11-13T22:04:05;808.97;;;147.68;;